Sublette, KS (67877)

12:07 AM CDT on July 07, 2015 (GMT -0500)
Crooked Creek Ag, Inc. Copeland, KS | | Change Station
CLOSE
Current Station
Personal Weather Station
Location: Copeland, KS
Elevation: 2789 ft
Nearby Weather Stations

Elev 2789 ft 37.59 °N, 100.59 °W | Updated 4 minutes ago

Overcast
Overcast
69.4 °F
Feels Like 69.4 °F
N
9.0
Wind Variable Wind from North
Gusts 19.0 mph

Today
High -- | Low -- °F
--% Chance of Precip.
Yesterday
High -- | Low -- °F
Precip. -- in
6:29 AM 9:07 PM
Waning Gibbous, 68% visible
Pressure 30.05 in
Visibility 4.0 miles
Clouds Mostly Cloudy 6000 ft
Dew Point 58 °F
Humidity 67%
Rainfall 0.00 in
Snow Depth Not available.
UV 0 out of 12
Pollen 1.80 out of 12
Air Quality Not available.
Flu Activity Not available.
METAR KGCK 070454Z AUTO 03009KT 4SM HZ BKN060 19/12 A3014 RMK AO2 SLP175 T01940117

More Conditions Fewer Conditions

Pressure 30.05 in
Visibility 4.0 miles
Clouds Mostly Cloudy 6000 ft
Dew Point 58 °F
Humidity 67%
Rainfall 0.00 in
Snow Depth Not available.
UV 0 out of 12
Pollen 1.80 out of 12
Air Quality Not available.
Flu Activity Not available.
METAR KGCK 070454Z AUTO 03009KT 4SM HZ BKN060 19/12 A3014 RMK AO2 SLP175 T01940117

More Conditions Fewer Conditions

10-Day Weather Forecast

×

Almanac

Astronomy

Jul. 07, 2015 Rise Set
Actual Time
Civil Twilight
Nautical Twilight
Astronomical Twilight
Moon
Length of Visible Light
Length of Day
Tomorrow will be .
, % of the Moon is Illuminated

Today's Extremes

State Highs State Lows

Community

WunderPhotos

Upload Photos

1,835,731 photos uploaded!

WunderBlogs® & News

Nearby

Air Quality

  Air Quality AQ Index Pollutant
Not available.

Snow Depth

Station Depth Elevation

Earthquake Activity

City Distance Mag. Time & Date
Minimum magnitude displayed is 2.5.

Coastal Water Temperatures

Place Temperature

Stations

Nearby Weather Stations

Station Location Temp. Windchill Dew Point Humidity Wind Precip. Elev Updated Type